createdAt,value
2018-07-10T00:00:16.984Z,15.93
2018-07-10T00:01:16.952Z,15.89
2018-07-10T00:02:16.837Z,15.89
2018-07-10T00:03:16.831Z,15.92
2018-07-10T00:04:16.817Z,15.89
2018-07-10T00:05:30.467Z,15.96
2018-07-10T00:06:16.963Z,15.96
2018-07-10T00:07:26.518Z,15.96
2018-07-10T00:09:29.637Z,15.99
2018-07-10T00:10:28.826Z,15.96
2018-07-10T00:11:38.269Z,15.93
2018-07-10T00:13:46.860Z,16.06
2018-07-10T00:14:57.352Z,16.01
2018-07-10T00:15:56.165Z,15.93
2018-07-10T00:18:23.227Z,15.99
2018-07-10T00:19:23.314Z,16.10
2018-07-10T00:21:38.624Z,16.01
2018-07-10T00:22:53.472Z,16.07
2018-07-10T00:23:38.645Z,16.04
2018-07-10T00:24:38.515Z,15.98
2018-07-10T00:25:38.844Z,15.98
2018-07-10T00:26:38.361Z,16.03
2018-07-10T00:27:38.385Z,16.10
2018-07-10T00:28:38.371Z,16.01
2018-07-10T00:29:38.317Z,16.03
2018-07-10T00:30:38.347Z,15.99
2018-07-10T00:31:38.335Z,15.99
2018-07-10T00:32:38.303Z,16.03
2018-07-10T00:33:38.315Z,16.06
2018-07-10T00:34:38.345Z,15.99
2018-07-10T00:35:38.332Z,16.04
2018-07-10T00:36:38.287Z,16.03
2018-07-10T00:37:38.304Z,16.04
2018-07-10T00:38:38.262Z,16.03
2018-07-10T00:39:38.177Z,16.11
2018-07-10T00:40:38.334Z,16.01
2018-07-10T00:41:38.344Z,16.10
2018-07-10T00:42:38.198Z,16.10
2018-07-10T00:43:38.155Z,16.06
2018-07-10T00:44:38.166Z,16.10
2018-07-10T00:45:38.118Z,16.08
2018-07-10T00:46:38.152Z,16.11
2018-07-10T00:48:59.946Z,15.99
2018-07-10T00:51:12.174Z,16.03
2018-07-10T00:52:11.956Z,16.04
2018-07-10T00:54:57.514Z,16.01
2018-07-10T00:55:56.864Z,16.06
2018-07-10T00:56:57.109Z,16.04
2018-07-10T00:57:56.705Z,15.98
2018-07-10T00:58:56.725Z,16.08
2018-07-10T00:59:56.710Z,16.10
2018-07-10T01:00:56.705Z,16.04
2018-07-10T01:01:56.740Z,16.06
2018-07-10T01:02:56.706Z,16.07
2018-07-10T01:03:56.629Z,16.13
2018-07-10T01:04:56.636Z,15.96
2018-07-10T01:06:11.483Z,16.03
2018-07-10T01:06:57.019Z,15.99
2018-07-10T01:07:56.885Z,15.99
2018-07-10T01:08:56.980Z,15.95
2018-07-10T01:09:56.654Z,15.96
2018-07-10T01:10:56.549Z,15.98
2018-07-10T01:11:56.545Z,15.91
2018-07-10T01:12:56.524Z,15.92
2018-07-10T01:13:56.514Z,15.96
2018-07-10T01:14:56.546Z,15.92
2018-07-10T01:16:11.670Z,15.92
2018-07-10T01:16:56.789Z,15.95
2018-07-10T01:18:09.143Z,15.93
2018-07-10T01:18:56.557Z,16.03
2018-07-10T01:19:56.977Z,16.01
2018-07-10T01:20:56.531Z,16.01
2018-07-10T01:22:12.171Z,15.99
2018-07-10T01:22:56.760Z,15.96
2018-07-10T01:23:56.526Z,15.96
2018-07-10T01:26:14.499Z,16.04
2018-07-10T01:27:14.398Z,15.98
2018-07-10T01:28:14.291Z,15.98
2018-07-10T01:30:28.371Z,15.96
2018-07-10T01:31:28.169Z,15.93
2018-07-10T01:32:28.320Z,15.95
2018-07-10T01:33:42.424Z,15.96
2018-07-10T01:34:28.419Z,16.03
2018-07-10T01:35:28.150Z,15.95
2018-07-10T01:38:40.524Z,15.99
2018-07-10T01:39:40.589Z,15.91
2018-07-10T01:40:40.759Z,15.92
2018-07-10T01:41:40.405Z,15.88
2018-07-10T01:42:40.360Z,15.89
2018-07-10T01:43:53.926Z,15.81
2018-07-10T01:44:52.213Z,15.89
2018-07-10T01:45:40.525Z,15.89
2018-07-10T01:46:50.531Z,15.91
2018-07-10T01:47:41.306Z,15.88
2018-07-10T01:48:41.260Z,15.84
2018-07-10T01:49:41.123Z,15.89
2018-07-10T01:50:40.301Z,15.85
2018-07-10T01:51:40.280Z,15.85
2018-07-10T01:53:59.653Z,15.91
2018-07-10T01:54:59.413Z,15.91
2018-07-10T01:55:59.323Z,15.89
2018-07-10T01:56:59.546Z,15.81
2018-07-10T01:57:59.151Z,15.76
2018-07-10T02:00:33.036Z,15.91
2018-07-10T02:01:32.583Z,15.78
2018-07-10T02:02:33.193Z,15.88
2018-07-10T02:03:32.514Z,15.73
2018-07-10T02:04:32.468Z,15.70
2018-07-10T02:05:32.451Z,15.77
2018-07-10T02:06:32.438Z,15.78
2018-07-10T02:07:32.484Z,15.66
2018-07-10T02:08:32.490Z,15.73
2018-07-10T02:09:32.428Z,15.67
2018-07-10T02:10:32.496Z,15.71
2018-07-10T02:12:54.235Z,15.66
2018-07-10T02:13:54.122Z,15.66
2018-07-10T02:15:12.264Z,15.68
2018-07-10T02:15:54.189Z,15.71
2018-07-10T02:16:54.421Z,15.62
2018-07-10T02:17:53.900Z,15.67
2018-07-10T02:18:53.913Z,15.67
2018-07-10T02:19:53.926Z,15.62
2018-07-10T02:20:53.889Z,15.70
2018-07-10T02:21:54.006Z,15.73
2018-07-10T02:24:58.455Z,15.78
2018-07-10T02:25:57.981Z,15.66
2018-07-10T02:26:57.954Z,15.71
2018-07-10T02:27:57.957Z,15.71
2018-07-10T02:28:57.912Z,15.71
2018-07-10T02:29:57.940Z,15.73
2018-07-10T02:30:57.897Z,15.67
2018-07-10T02:31:57.891Z,15.66
2018-07-10T02:32:57.947Z,15.66
2018-07-10T02:33:57.872Z,15.73
2018-07-10T02:34:57.941Z,15.68
2018-07-10T02:35:57.854Z,15.60
2018-07-10T02:38:53.862Z,15.52
2018-07-10T02:39:53.661Z,15.55
2018-07-10T02:40:53.520Z,15.56
2018-07-10T02:41:53.335Z,15.56
2018-07-10T02:42:53.283Z,15.55
2018-07-10T02:43:53.327Z,15.59
2018-07-10T02:44:53.307Z,15.60
2018-07-10T02:45:53.271Z,15.58
2018-07-10T02:46:53.524Z,15.56
2018-07-10T02:47:53.222Z,15.60
2018-07-10T02:48:53.214Z,15.51
2018-07-10T02:49:53.247Z,15.51
2018-07-10T02:51:02.591Z,15.46
2018-07-10T02:51:53.322Z,15.59
2018-07-10T02:52:53.402Z,15.56
2018-07-10T02:53:53.529Z,15.52
2018-07-10T02:56:17.384Z,15.51
2018-07-10T02:57:17.152Z,15.41
2018-07-10T02:58:17.516Z,15.43
2018-07-10T02:59:17.048Z,15.48
2018-07-10T03:00:17.154Z,15.49
2018-07-10T03:01:17.043Z,15.49
2018-07-10T03:02:17.019Z,15.60
2018-07-10T03:04:37.679Z,15.56
2018-07-10T03:05:37.795Z,15.52
2018-07-10T03:06:37.469Z,15.53
2018-07-10T03:07:37.453Z,15.52
2018-07-10T03:08:37.468Z,15.46
2018-07-10T03:10:57.147Z,15.60
2018-07-10T03:13:36.860Z,15.58
2018-07-10T03:14:36.243Z,15.49
2018-07-10T03:15:36.662Z,15.46
2018-07-10T03:16:36.079Z,15.44
2018-07-10T03:17:36.020Z,15.51
2018-07-10T03:18:36.078Z,15.49
2018-07-10T03:19:54.934Z,15.49
2018-07-10T03:20:36.745Z,15.52
2018-07-10T03:21:35.983Z,15.38
2018-07-10T03:24:06.722Z,15.44
2018-07-10T03:25:17.209Z,15.52
2018-07-10T03:26:16.946Z,15.51
2018-07-10T03:27:06.558Z,15.46
2018-07-10T03:28:06.672Z,15.48
2018-07-10T03:29:06.727Z,15.43
2018-07-10T03:30:06.441Z,15.51
2018-07-10T03:31:06.430Z,15.48
2018-07-10T03:33:27.033Z,15.51
2018-07-10T03:34:26.489Z,15.52
2018-07-10T03:35:26.662Z,15.49
2018-07-10T03:36:26.411Z,15.52
2018-07-10T03:37:37.355Z,15.56
2018-07-10T03:39:44.564Z,15.64
2018-07-10T03:40:44.416Z,15.56
2018-07-10T03:43:14.073Z,15.56
2018-07-10T03:45:26.885Z,15.49
2018-07-10T03:47:44.983Z,15.58
2018-07-10T03:48:44.736Z,15.60
2018-07-10T03:49:56.100Z,15.44
2018-07-10T03:50:45.159Z,15.53
2018-07-10T03:51:45.155Z,15.52
2018-07-10T03:52:44.781Z,15.52
2018-07-10T03:53:44.638Z,15.55
2018-07-10T03:54:44.615Z,15.53
2018-07-10T03:55:44.614Z,15.51
2018-07-10T03:56:44.657Z,15.49
2018-07-10T03:57:44.649Z,15.51
2018-07-10T03:58:44.569Z,15.60
2018-07-10T03:59:44.697Z,15.52
2018-07-10T04:00:44.703Z,15.56
2018-07-10T04:01:44.629Z,15.60
2018-07-10T04:02:44.554Z,15.64
2018-07-10T04:03:44.517Z,15.58
2018-07-10T04:04:51.996Z,15.56
2018-07-10T04:05:44.473Z,15.56
2018-07-10T04:06:44.463Z,15.56
2018-07-10T04:07:44.430Z,15.58
2018-07-10T04:08:44.435Z,15.58
2018-07-10T04:09:44.404Z,15.58
2018-07-10T04:10:44.394Z,15.53
2018-07-10T04:11:44.400Z,15.60
2018-07-10T04:12:44.373Z,15.60
2018-07-10T04:13:44.362Z,15.60
2018-07-10T04:14:44.358Z,15.64
2018-07-10T04:15:44.336Z,15.58
2018-07-10T04:16:44.337Z,15.53
2018-07-10T04:17:44.367Z,15.51
2018-07-10T04:18:44.306Z,15.53
2018-07-10T04:19:44.293Z,15.58
2018-07-10T04:20:44.284Z,15.55
2018-07-10T04:21:44.310Z,15.51
2018-07-10T04:22:44.257Z,15.53
2018-07-10T04:23:44.246Z,15.56
2018-07-10T04:24:44.236Z,15.56
2018-07-10T04:25:44.224Z,15.56
2018-07-10T04:26:44.257Z,15.60
2018-07-10T04:27:44.223Z,15.60
2018-07-10T04:28:44.190Z,15.53
2018-07-10T04:29:44.214Z,15.60
2018-07-10T04:30:44.175Z,15.53
2018-07-10T04:31:44.156Z,15.64
2018-07-10T04:32:44.161Z,15.62
2018-07-10T04:33:44.142Z,15.60
2018-07-10T04:34:44.127Z,15.38
2018-07-10T04:35:44.114Z,15.30
2018-07-10T04:36:44.102Z,15.22
2018-07-10T04:37:44.109Z,14.97
2018-07-10T04:38:44.089Z,14.95
2018-07-10T04:39:44.069Z,14.74
2018-07-10T04:40:44.058Z,14.69
2018-07-10T04:41:44.053Z,14.61
2018-07-10T04:42:44.069Z,14.56
2018-07-10T04:43:44.038Z,14.52
2018-07-10T04:44:44.013Z,14.41
2018-07-10T04:45:44.002Z,14.42
2018-07-10T04:46:43.989Z,14.44
2018-07-10T04:47:44.022Z,14.27
2018-07-10T04:48:43.987Z,14.46
2018-07-10T04:49:43.956Z,14.39
2018-07-10T04:50:43.945Z,14.42
2018-07-10T04:51:43.942Z,14.41
2018-07-10T04:52:43.934Z,14.45
2018-07-10T04:53:43.922Z,14.46
2018-07-10T04:54:43.899Z,14.41
2018-07-10T04:55:43.893Z,14.41
2018-07-10T04:56:43.880Z,14.42
2018-07-10T04:57:43.865Z,14.44
2018-07-10T04:58:43.865Z,14.46
2018-07-10T04:59:43.843Z,14.39
2018-07-10T05:00:43.835Z,14.48
2018-07-10T05:01:43.822Z,14.34
2018-07-10T05:02:43.825Z,14.29
2018-07-10T05:03:43.813Z,14.31
2018-07-10T05:04:43.794Z,14.30
2018-07-10T05:05:43.821Z,14.30
2018-07-10T05:06:43.765Z,14.30
2018-07-10T05:07:43.756Z,14.29
2018-07-10T05:08:43.752Z,14.27
2018-07-10T05:09:43.731Z,14.26
2018-07-10T05:10:43.721Z,14.12
2018-07-10T05:11:43.708Z,14.23
2018-07-10T05:12:43.701Z,14.13
2018-07-10T05:13:43.702Z,14.08
2018-07-10T05:14:43.677Z,14.12
2018-07-10T05:15:43.664Z,14.20
2018-07-10T05:16:43.661Z,14.11
2018-07-10T05:17:43.710Z,14.11
2018-07-10T05:18:43.642Z,14.04
2018-07-10T05:19:43.618Z,14.08
2018-07-10T05:20:43.608Z,13.99
2018-07-10T05:21:43.597Z,13.93
2018-07-10T05:22:43.583Z,13.90
2018-07-10T05:23:43.587Z,13.80
2018-07-10T05:24:43.566Z,13.71
2018-07-10T05:25:43.556Z,13.69
2018-07-10T05:26:43.553Z,13.65
2018-07-10T05:27:43.534Z,13.57
2018-07-10T05:28:43.562Z,13.59
2018-07-10T05:29:43.532Z,13.54
2018-07-10T05:30:43.513Z,13.48
2018-07-10T05:31:43.520Z,13.51
2018-07-10T05:32:43.474Z,13.43
2018-07-10T05:33:43.476Z,13.43
2018-07-10T05:34:43.465Z,13.43
2018-07-10T05:35:43.440Z,13.41
2018-07-10T05:36:43.451Z,13.35
2018-07-10T05:37:43.418Z,13.41
2018-07-10T05:38:43.461Z,13.44
2018-07-10T05:39:43.491Z,13.46
2018-07-10T05:40:43.383Z,13.43
2018-07-10T05:41:43.373Z,13.50
2018-07-10T05:42:43.363Z,13.44
2018-07-10T05:43:43.389Z,13.51
2018-07-10T05:44:43.355Z,13.38
2018-07-10T05:45:43.328Z,13.38
2018-07-10T05:46:43.315Z,13.41
2018-07-10T05:47:43.305Z,13.31
2018-07-10T05:48:43.296Z,13.28
2018-07-10T05:49:43.300Z,13.22
2018-07-10T05:50:43.271Z,13.31
2018-07-10T05:51:43.322Z,13.36
2018-07-10T05:52:43.247Z,13.44
2018-07-10T05:53:43.243Z,13.50
2018-07-10T05:54:43.237Z,13.46
2018-07-10T05:55:43.236Z,13.46
2018-07-10T05:56:43.206Z,13.50
2018-07-10T05:57:43.193Z,13.44
2018-07-10T05:58:43.192Z,13.55
2018-07-10T05:59:43.184Z,13.53
2018-07-10T06:00:43.165Z,13.55
2018-07-10T06:01:43.145Z,13.59
2018-07-10T06:02:43.137Z,13.53
2018-07-10T06:03:43.125Z,13.59
2018-07-10T06:04:43.217Z,13.69
2018-07-10T06:05:43.101Z,13.73
2018-07-10T06:06:43.109Z,13.69
2018-07-10T06:07:43.080Z,13.63
2018-07-10T06:08:43.069Z,13.66
2018-07-10T06:09:43.068Z,13.72
2018-07-10T06:10:43.050Z,13.73
2018-07-10T06:11:43.034Z,13.75
2018-07-10T06:12:43.023Z,13.73
2018-07-10T06:13:43.015Z,13.69
2018-07-10T06:14:43.020Z,13.71
2018-07-10T06:15:42.987Z,13.69
2018-07-10T06:16:42.989Z,13.73
2018-07-10T06:17:42.977Z,13.69
2018-07-10T06:18:42.964Z,13.71
2018-07-10T06:19:42.958Z,13.80
2018-07-10T06:20:42.935Z,13.72
2018-07-10T06:21:42.923Z,13.66
2018-07-10T06:22:42.910Z,13.69
2018-07-10T06:23:42.948Z,13.72
2018-07-10T06:24:42.914Z,13.68
2018-07-10T06:25:42.907Z,13.61
2018-07-10T06:26:42.873Z,13.57
2018-07-10T06:27:42.876Z,13.68
2018-07-10T06:28:42.851Z,13.71
2018-07-10T06:29:42.845Z,13.72
2018-07-10T06:30:42.850Z,13.69
2018-07-10T06:31:42.810Z,13.75
2018-07-10T06:32:42.804Z,13.84
2018-07-10T06:33:42.791Z,13.84
2018-07-10T06:34:42.807Z,13.79
2018-07-10T06:35:42.770Z,13.79
2018-07-10T06:36:42.757Z,13.84
2018-07-10T06:37:42.746Z,13.84
2018-07-10T06:38:42.732Z,13.80
2018-07-10T06:39:42.745Z,13.79
2018-07-10T06:40:42.712Z,13.84
2018-07-10T06:41:42.701Z,13.87
2018-07-10T06:42:42.689Z,13.83
2018-07-10T06:43:42.680Z,13.87
2018-07-10T06:44:42.722Z,13.84
2018-07-10T06:45:42.654Z,13.91
2018-07-10T06:46:42.651Z,13.87
2018-07-10T06:47:42.631Z,13.93
2018-07-10T06:48:42.671Z,13.81
2018-07-10T06:49:42.624Z,13.79
2018-07-10T06:50:42.599Z,13.86
2018-07-10T06:51:42.586Z,13.81
2018-07-10T06:52:42.871Z,13.87
2018-07-10T06:53:42.582Z,13.91
2018-07-10T06:54:42.568Z,13.90
2018-07-10T06:55:42.539Z,14.01
2018-07-10T06:56:42.531Z,13.96
2018-07-10T06:57:42.521Z,14.01
2018-07-10T06:58:42.509Z,13.98
2018-07-10T06:59:42.499Z,14.06
2018-07-10T07:00:42.525Z,13.96
2018-07-10T07:01:42.482Z,14.08
2018-07-10T07:02:42.465Z,14.09
2018-07-10T07:03:42.511Z,14.01
2018-07-10T07:04:42.442Z,14.06
2018-07-10T07:05:42.447Z,14.11
2018-07-10T07:06:42.420Z,14.12
2018-07-10T07:07:42.426Z,14.13
2018-07-10T07:08:42.443Z,14.06
2018-07-10T07:09:42.387Z,14.23
2018-07-10T07:10:42.396Z,14.20
2018-07-10T07:11:42.366Z,14.21
2018-07-10T07:12:42.348Z,14.23
2018-07-10T07:13:42.337Z,14.16
2018-07-10T07:14:42.331Z,14.23
2018-07-10T07:15:42.328Z,14.19
2018-07-10T07:16:42.306Z,14.30
2018-07-10T07:17:42.299Z,14.23
2018-07-10T07:18:42.281Z,14.24
2018-07-10T07:19:42.270Z,14.30
2018-07-10T07:20:42.272Z,14.31
2018-07-10T07:21:42.288Z,14.39
2018-07-10T07:22:42.269Z,14.49
2018-07-10T07:23:42.283Z,14.48
2018-07-10T07:24:42.249Z,14.46
2018-07-10T07:25:42.214Z,14.52
2018-07-10T07:26:42.192Z,14.49
2018-07-10T07:27:42.198Z,14.52
2018-07-10T07:28:42.183Z,14.59
2018-07-10T07:29:42.161Z,14.61
2018-07-10T07:30:42.158Z,14.66
2018-07-10T07:31:42.133Z,14.63
2018-07-10T07:32:42.132Z,14.63
2018-07-10T07:33:42.121Z,14.71
2018-07-10T07:34:42.122Z,14.63
2018-07-10T07:35:42.118Z,14.71
2018-07-10T07:36:42.078Z,14.63
2018-07-10T07:37:42.073Z,14.67
2018-07-10T07:38:42.097Z,14.61
2018-07-10T07:39:42.046Z,14.60
2018-07-10T07:40:42.044Z,14.67
2018-07-10T07:41:42.036Z,14.69
2018-07-10T07:42:42.012Z,14.75
2018-07-10T07:43:42.069Z,14.72
2018-07-10T07:44:41.992Z,14.82
2018-07-10T07:45:41.996Z,14.86
2018-07-10T07:46:41.966Z,14.79
2018-07-10T07:47:41.980Z,14.90
2018-07-10T07:48:42.047Z,14.87
2018-07-10T07:49:41.971Z,14.94
2018-07-10T07:50:41.954Z,14.95
2018-07-10T07:51:41.921Z,15.05
2018-07-10T07:52:41.899Z,15.22
2018-07-10T07:53:41.889Z,15.25
2018-07-10T07:54:41.881Z,15.34
2018-07-10T07:55:41.867Z,15.48
2018-07-10T07:56:41.869Z,15.84
2018-07-10T07:57:41.853Z,16.62
2018-07-10T07:58:41.838Z,17.81
2018-07-10T07:59:41.855Z,19.82
2018-07-10T08:00:41.810Z,19.97
2018-07-10T08:01:41.805Z,19.58
2018-07-10T08:02:41.801Z,19.47
2018-07-10T08:03:41.810Z,19.43
2018-07-10T08:04:41.765Z,19.34
2018-07-10T08:05:41.758Z,19.53
2018-07-10T08:06:41.796Z,19.05
2018-07-10T08:07:41.765Z,18.65
2018-07-10T08:08:41.718Z,18.96
2018-07-10T08:09:41.738Z,18.72
2018-07-10T08:10:41.706Z,18.83
2018-07-10T08:11:41.755Z,19.09
2018-07-10T08:12:41.675Z,18.83
2018-07-10T08:13:41.671Z,18.57
2018-07-10T08:14:41.657Z,18.23
2018-07-10T08:15:41.651Z,18.41
2018-07-10T08:16:41.642Z,18.99
2018-07-10T08:17:41.622Z,19.62
2018-07-10T08:18:41.606Z,20.44
2018-07-10T08:19:41.599Z,21.64
2018-07-10T08:20:41.587Z,21.27
2018-07-10T08:21:41.588Z,20.66
2018-07-10T08:22:41.565Z,22.35
2018-07-10T08:23:41.549Z,22.42
2018-07-10T08:24:41.541Z,21.77
2018-07-10T08:25:41.535Z,21.70
2018-07-10T08:26:41.559Z,22.70
2018-07-10T08:27:41.507Z,22.38
2018-07-10T08:28:41.494Z,22.59
2018-07-10T08:29:41.486Z,21.75
2018-07-10T08:30:41.481Z,22.44
2018-07-10T08:31:41.473Z,22.86
2018-07-10T08:32:41.454Z,23.90
2018-07-10T08:33:41.546Z,24.48
2018-07-10T08:34:41.437Z,24.45
2018-07-10T08:35:41.419Z,24.26
2018-07-10T08:36:41.419Z,23.41
2018-07-10T08:37:41.431Z,22.67
2018-07-10T08:38:41.384Z,22.41
2018-07-10T08:39:41.376Z,22.44
2018-07-10T08:40:41.360Z,23.41
2018-07-10T08:41:41.363Z,24.15
2018-07-10T08:42:41.341Z,24.60
2018-07-10T08:43:41.328Z,24.11
2018-07-10T08:44:41.338Z,23.12
2018-07-10T08:45:41.305Z,22.08
2018-07-10T08:46:41.304Z,21.48
2018-07-10T08:47:41.285Z,21.36
2018-07-10T08:48:41.277Z,21.36
2018-07-10T08:49:41.260Z,21.12
2018-07-10T08:50:41.297Z,20.93
2018-07-10T08:51:41.262Z,20.87
2018-07-10T08:52:41.232Z,21.27
2018-07-10T08:53:41.219Z,21.22
2018-07-10T08:54:41.215Z,20.83
2018-07-10T08:55:41.204Z,20.58
2018-07-10T08:56:41.199Z,20.50
2018-07-10T08:57:41.182Z,20.61
2018-07-10T08:58:41.183Z,20.60
2018-07-10T08:59:41.158Z,20.54
2018-07-10T09:00:41.139Z,20.26
2018-07-10T09:01:41.161Z,20.58
2018-07-10T09:02:41.136Z,20.54
2018-07-10T09:03:41.106Z,19.87
2018-07-10T09:04:41.092Z,19.68
2018-07-10T09:05:41.081Z,19.49
2018-07-10T09:06:41.081Z,19.43
2018-07-10T09:07:41.064Z,19.32
2018-07-10T09:08:41.139Z,19.39
2018-07-10T09:09:41.041Z,19.52
2018-07-10T09:10:41.026Z,19.75
2018-07-10T09:11:41.048Z,19.86
2018-07-10T09:12:41.037Z,19.85
2018-07-10T09:13:40.997Z,19.94
2018-07-10T09:14:40.986Z,19.76
2018-07-10T09:15:40.975Z,19.97
2018-07-10T09:16:40.958Z,20.75
2018-07-10T09:17:40.967Z,21.03
2018-07-10T09:18:40.941Z,21.26
2018-07-10T09:19:40.932Z,21.13
2018-07-10T09:20:40.914Z,21.26
2018-07-10T09:21:40.903Z,20.76
2018-07-10T09:22:40.923Z,20.35
2018-07-10T09:23:40.893Z,20.33
2018-07-10T09:24:40.888Z,20.40
2018-07-10T09:25:40.859Z,20.25
2018-07-10T09:26:40.849Z,20.23
2018-07-10T09:27:40.850Z,20.05
2018-07-10T09:28:40.827Z,19.75
2018-07-10T09:29:40.847Z,20.44
2018-07-10T09:30:40.807Z,21.16
2018-07-10T09:31:40.808Z,21.55
2018-07-10T09:32:40.826Z,21.13
2018-07-10T09:33:40.802Z,20.87
2018-07-10T09:34:40.758Z,20.48
2018-07-10T09:35:40.750Z,20.20
2018-07-10T09:36:40.735Z,21.08
2018-07-10T09:37:40.734Z,22.67
2018-07-10T09:38:40.714Z,22.76
2018-07-10T09:39:40.703Z,22.76
2018-07-10T09:40:40.698Z,22.04
2018-07-10T09:41:40.682Z,21.31
2018-07-10T09:42:40.719Z,20.96
2018-07-10T09:43:40.658Z,22.48
2018-07-10T09:44:40.649Z,24.02
2018-07-10T09:45:40.639Z,22.74
2018-07-10T09:46:40.628Z,22.11
2018-07-10T09:47:40.626Z,21.75
2018-07-10T09:48:40.604Z,21.45
2018-07-10T09:49:40.590Z,21.79
2018-07-10T09:50:40.579Z,22.35
2018-07-10T09:51:40.567Z,21.77
2018-07-10T09:52:40.568Z,21.70
2018-07-10T09:53:40.553Z,21.45
2018-07-10T09:54:40.584Z,21.61
2018-07-10T09:55:40.526Z,21.52
2018-07-10T09:56:40.512Z,21.58
2018-07-10T09:57:40.515Z,21.52
2018-07-10T09:58:40.489Z,21.46
2018-07-10T09:59:40.478Z,21.37
2018-07-10T10:00:40.469Z,21.15
2018-07-10T10:01:40.455Z,21.11
2018-07-10T10:02:40.460Z,21.34
2018-07-10T10:03:40.442Z,21.52
2018-07-10T10:04:40.421Z,21.67
2018-07-10T10:05:40.412Z,21.81
2018-07-10T10:06:40.400Z,21.74
2018-07-10T10:07:40.403Z,21.58
2018-07-10T10:08:40.380Z,21.27
2018-07-10T10:09:40.366Z,21.22
2018-07-10T10:10:40.361Z,21.22
2018-07-10T10:11:40.351Z,21.26
2018-07-10T10:12:40.347Z,20.97
2018-07-10T10:13:40.321Z,20.90
2018-07-10T10:14:40.310Z,20.78
2018-07-10T10:15:40.317Z,20.61
2018-07-10T10:16:40.290Z,20.40
2018-07-10T10:17:40.295Z,20.19
2018-07-10T10:18:40.291Z,20.17
2018-07-10T10:19:40.253Z,19.86
2018-07-10T10:20:40.300Z,19.82
2018-07-10T10:21:40.232Z,19.90
2018-07-10T10:22:40.245Z,19.76
2018-07-10T10:23:40.207Z,19.62
2018-07-10T10:24:40.210Z,19.49
2018-07-10T10:25:40.204Z,19.42
2018-07-10T10:26:40.176Z,19.30
2018-07-10T10:27:40.187Z,19.20
2018-07-10T10:28:40.153Z,19.07
2018-07-10T10:29:40.145Z,18.96
2018-07-10T10:30:40.133Z,18.74
2018-07-10T10:31:40.123Z,18.68
2018-07-10T10:32:40.110Z,18.68
2018-07-10T10:33:40.108Z,18.57
2018-07-10T10:34:40.086Z,18.66
2018-07-10T10:35:40.133Z,18.64
2018-07-10T10:36:40.068Z,18.69
2018-07-10T10:37:40.054Z,18.64
2018-07-10T10:38:40.056Z,18.50
2018-07-10T10:39:40.029Z,18.56
2018-07-10T10:40:40.022Z,18.57
2018-07-10T10:41:40.009Z,18.46
2018-07-10T10:42:39.997Z,18.51
2018-07-10T10:43:39.996Z,18.65
2018-07-10T10:44:39.982Z,18.66
2018-07-10T10:45:39.963Z,18.71
2018-07-10T10:46:39.952Z,18.75
2018-07-10T10:47:39.939Z,18.75
2018-07-10T10:48:39.963Z,18.86
2018-07-10T10:49:39.941Z,18.84
2018-07-10T10:50:39.911Z,18.76
2018-07-10T10:51:39.904Z,18.86
2018-07-10T10:52:39.887Z,18.97
2018-07-10T10:53:39.936Z,19.09
2018-07-10T10:54:39.868Z,19.12
2018-07-10T10:55:39.851Z,19.12
2018-07-10T10:56:39.842Z,19.06
2018-07-10T10:57:39.831Z,19.34
2018-07-10T10:58:39.860Z,19.42
2018-07-10T10:59:39.808Z,19.55
2018-07-10T11:00:39.802Z,19.64
2018-07-10T11:01:39.788Z,19.82
2018-07-10T11:02:39.875Z,19.86
2018-07-10T11:03:39.777Z,20.08
2018-07-10T11:04:39.752Z,20.26
2018-07-10T11:05:39.747Z,20.34
2018-07-10T11:06:39.730Z,20.50
2018-07-10T11:07:39.717Z,20.63
2018-07-10T11:08:39.719Z,20.79
2018-07-10T11:09:39.710Z,20.78
2018-07-10T11:10:39.696Z,20.90
2018-07-10T11:11:39.672Z,20.71
2018-07-10T11:12:39.661Z,20.54
2018-07-10T11:13:39.661Z,20.40
2018-07-10T11:14:39.644Z,19.86
2018-07-10T11:15:39.638Z,19.83
2018-07-10T11:16:39.614Z,19.87
2018-07-10T11:17:39.605Z,20.05
2018-07-10T11:18:39.607Z,20.04
2018-07-10T11:19:39.584Z,20.01
2018-07-10T11:20:39.576Z,20.04
2018-07-10T11:21:39.565Z,20.01
2018-07-10T11:22:39.548Z,20.01
2018-07-10T11:23:39.563Z,19.94
2018-07-10T11:24:39.530Z,19.90
2018-07-10T11:25:39.518Z,20.04
2018-07-10T11:26:39.512Z,20.02
2018-07-10T11:27:39.513Z,19.92
2018-07-10T11:28:39.488Z,19.89
2018-07-10T11:29:39.489Z,19.71
2018-07-10T11:30:39.463Z,19.58
2018-07-10T11:31:39.448Z,19.43
2018-07-10T11:32:39.439Z,19.42
2018-07-10T11:33:39.430Z,19.35
2018-07-10T11:34:39.432Z,19.27
2018-07-10T11:35:39.407Z,19.31
2018-07-10T11:36:39.395Z,19.27
2018-07-10T11:37:39.385Z,19.31
2018-07-10T11:38:39.385Z,19.28
2018-07-10T11:39:39.392Z,19.31
2018-07-10T11:40:39.350Z,19.21
2018-07-10T11:41:39.337Z,19.24
2018-07-10T11:42:39.328Z,19.32
2018-07-10T11:43:39.317Z,19.46
2018-07-10T11:44:39.316Z,19.50
2018-07-10T11:45:39.357Z,19.27
2018-07-10T11:46:39.285Z,19.13
2018-07-10T11:47:39.273Z,18.97
2018-07-10T11:48:39.260Z,18.89
2018-07-10T11:49:39.266Z,18.78
2018-07-10T11:50:39.239Z,18.82
2018-07-10T11:51:39.249Z,18.84
2018-07-10T11:52:39.216Z,18.90
2018-07-10T11:53:39.208Z,19.01
2018-07-10T11:54:39.204Z,19.09
2018-07-10T11:55:39.184Z,19.10
2018-07-10T11:56:39.171Z,19.34
2018-07-10T11:57:39.161Z,19.28
2018-07-10T11:58:39.145Z,19.28
2018-07-10T11:59:39.152Z,19.27
2018-07-10T12:00:39.124Z,19.38
2018-07-10T12:01:39.114Z,19.53
2018-07-10T12:02:39.105Z,19.49
2018-07-10T12:03:39.095Z,19.45
2018-07-10T12:04:39.100Z,19.57
2018-07-10T12:05:39.081Z,19.53
2018-07-10T12:06:39.063Z,19.57
2018-07-10T12:07:39.049Z,19.61
2018-07-10T12:08:39.036Z,19.82
2018-07-10T12:09:39.039Z,19.83
2018-07-10T12:10:39.039Z,19.86
2018-07-10T12:11:39.003Z,19.94
2018-07-10T12:12:38.996Z,19.82
2018-07-10T12:13:38.981Z,19.78
2018-07-10T12:14:38.981Z,19.85
2018-07-10T12:15:38.958Z,19.67
2018-07-10T12:16:38.954Z,19.57
2018-07-10T12:17:38.986Z,19.58
2018-07-10T12:18:38.926Z,19.45
2018-07-10T12:19:38.930Z,19.43
2018-07-10T12:20:38.915Z,19.45
2018-07-10T12:21:38.891Z,19.35
2018-07-10T12:22:38.938Z,19.32
2018-07-10T12:23:38.905Z,19.46
2018-07-10T12:24:38.868Z,19.53
2018-07-10T12:25:38.847Z,19.49
2018-07-10T12:26:38.890Z,19.57
2018-07-10T12:27:38.824Z,19.75
2018-07-10T12:28:38.813Z,19.89
2018-07-10T12:29:38.813Z,19.90
2018-07-10T12:30:38.798Z,20.04
2018-07-10T12:31:38.780Z,20.07
2018-07-10T12:32:38.770Z,20.25
2018-07-10T12:33:38.758Z,20.19
2018-07-10T12:34:38.780Z,20.22
2018-07-10T12:35:38.737Z,20.25
2018-07-10T12:36:38.728Z,20.19
2018-07-10T12:37:38.712Z,20.08
2018-07-10T12:38:38.704Z,19.97
2018-07-10T12:39:38.709Z,20.02
2018-07-10T12:40:38.691Z,19.97
2018-07-10T12:41:38.703Z,19.97
2018-07-10T12:42:38.657Z,19.89
2018-07-10T12:43:38.645Z,19.86
2018-07-10T12:44:38.637Z,20.04
2018-07-10T12:45:38.672Z,20.01
2018-07-10T12:46:38.691Z,20.04
2018-07-10T12:47:38.604Z,20.12
2018-07-10T12:48:38.590Z,20.07
2018-07-10T12:49:38.583Z,20.01
2018-07-10T12:50:38.586Z,20.02
2018-07-10T12:51:38.560Z,20.01
2018-07-10T12:52:38.544Z,20.08
2018-07-10T12:53:38.534Z,20.17
2018-07-10T12:54:38.523Z,20.20
2018-07-10T12:55:38.520Z,20.30
2018-07-10T12:56:38.508Z,20.33
2018-07-10T12:57:38.491Z,20.40
2018-07-10T12:58:38.481Z,20.42
2018-07-10T12:59:38.476Z,20.37
2018-07-10T13:00:38.468Z,20.07
2018-07-10T13:01:38.458Z,20.17
2018-07-10T13:02:38.434Z,20.12
2018-07-10T13:03:38.423Z,20.13
2018-07-10T13:04:38.410Z,19.89
2018-07-10T13:05:38.414Z,19.87
2018-07-10T13:06:38.392Z,19.83
2018-07-10T13:07:38.381Z,19.76
2018-07-10T13:08:38.372Z,19.47
2018-07-10T13:09:38.359Z,19.42
2018-07-10T13:10:38.359Z,19.42
2018-07-10T13:11:38.380Z,19.34
2018-07-10T13:12:38.328Z,19.34
2018-07-10T13:13:38.313Z,19.35
2018-07-10T13:14:38.302Z,19.35
2018-07-10T13:15:38.301Z,19.35
2018-07-10T13:16:38.280Z,19.39
2018-07-10T13:17:38.267Z,19.25
2018-07-10T13:18:38.260Z,19.27
2018-07-10T13:19:38.275Z,19.30
2018-07-10T13:20:38.249Z,19.34
2018-07-10T13:21:38.223Z,19.34
2018-07-10T13:22:38.224Z,19.30
2018-07-10T13:23:38.206Z,19.35
2018-07-10T13:24:38.189Z,19.35
2018-07-10T13:25:38.191Z,19.35
2018-07-10T13:26:38.165Z,19.38
2018-07-10T13:27:38.155Z,19.47
2018-07-10T13:28:38.147Z,19.49